createdAt,value
2022-10-23T17:32:47.944Z,-23750.69
2022-10-23T17:35:14.675Z,-23754.56
2022-10-23T17:37:41.152Z,-23756.50
2022-10-23T17:40:08.229Z,-23756.50
2022-10-23T17:42:34.730Z,-23757.97
2022-10-23T17:45:01.288Z,-23757.97
2022-10-23T17:47:27.826Z,-23755.78
2022-10-23T17:49:54.366Z,-23760.41
2022-10-23T17:52:20.882Z,-23762.34
2022-10-23T17:54:52.081Z,-23759.91
2022-10-23T17:57:18.619Z,-23759.91
2022-10-23T17:59:45.122Z,-23759.41
2022-10-23T18:02:13.253Z,-23758.69
2022-10-23T18:04:39.936Z,-23761.38
2022-10-23T18:07:06.426Z,-23757.97
2022-10-23T18:09:33.000Z,-23756.75
2022-10-23T18:11:59.514Z,-23757.97
2022-10-23T18:14:28.519Z,-23754.56
2022-10-23T18:16:56.226Z,-23752.13
2022-10-23T18:19:22.843Z,-23752.63
2022-10-23T18:21:49.374Z,-23751.19
2022-10-23T18:24:16.434Z,-23744.38
2022-10-23T18:26:43.247Z,-23748.25
2022-10-23T18:29:11.945Z,-23748.75
2022-10-23T18:31:39.167Z,-23745.09
2022-10-23T18:34:15.004Z,-23743.66
2022-10-23T18:36:41.640Z,-23741.47
2022-10-23T18:39:11.874Z,-23741.97
2022-10-23T18:41:40.579Z,-23738.56
2022-10-23T18:44:08.714Z,-23738.56
2022-10-23T18:46:36.457Z,-23738.56
2022-10-23T18:49:03.981Z,-23735.88
2022-10-23T18:51:32.886Z,-23733.22
2022-10-23T18:54:09.418Z,-23733.22
2022-10-23T18:56:36.223Z,-23736.88
2022-10-23T18:59:05.414Z,-23735.16
2022-10-23T19:01:32.343Z,-23734.44
2022-10-23T19:04:00.953Z,-23734.91
2022-10-23T19:06:29.404Z,-23736.63
2022-10-23T19:08:56.299Z,-23730.53
2022-10-23T19:11:25.068Z,-23729.09
2022-10-23T19:13:51.709Z,-23728.84
2022-10-23T19:16:38.215Z,-23729.56
2022-10-23T19:19:19.421Z,-23725.94
2022-10-23T19:21:46.781Z,-23725.22
2022-10-23T19:24:19.684Z,-23735.16
2022-10-23T19:26:46.824Z,-23733.69
2022-10-23T19:29:16.957Z,-23730.06
2022-10-23T19:31:48.849Z,-23733.69
2022-10-23T19:34:20.662Z,-23733.69
2022-10-23T19:36:48.438Z,-23731.03
2022-10-23T19:39:15.941Z,-23735.16
2022-10-23T19:41:43.088Z,-23741.97
2022-10-23T19:44:09.611Z,-23743.88
2022-10-23T19:46:37.151Z,-23743.41
2022-10-23T19:49:05.374Z,-23744.88
2022-10-23T19:51:32.459Z,-23734.66
2022-10-23T19:54:00.163Z,-23731.75
2022-10-23T19:56:26.898Z,-23731.28
2022-10-23T19:58:53.818Z,-23728.84
2022-10-23T20:01:22.946Z,-23724.97
2022-10-23T20:03:50.117Z,-23720.84
2022-10-23T20:06:22.141Z,-23716.72
2022-10-23T20:08:48.922Z,-23713.31
2022-10-23T20:11:21.959Z,-23713.06
2022-10-23T20:13:49.209Z,-23713.31
2022-10-23T20:16:21.441Z,-23722.03
2022-10-23T20:18:48.181Z,-23726.41
2022-10-23T20:21:15.609Z,-23728.84
2022-10-23T20:23:42.755Z,-23721.81
2022-10-23T20:26:12.173Z,-23719.63
2022-10-23T20:28:39.294Z,-23722.53
2022-10-23T20:31:10.074Z,-23734.19
2022-10-23T20:33:38.596Z,-23731.03
2022-10-23T20:36:07.303Z,-23731.28
2022-10-23T20:38:35.495Z,-23735.88
2022-10-23T20:41:07.055Z,-23739.28
2022-10-23T20:43:34.237Z,-23739.28
2022-10-23T20:46:08.974Z,-23742.44
2022-10-23T20:48:36.902Z,-23735.66
2022-10-23T20:51:04.637Z,-23738.56
2022-10-23T20:53:31.622Z,-23742.44
2022-10-23T20:55:58.214Z,-23744.38
2022-10-23T20:58:24.695Z,-23745.59
2022-10-23T21:03:22.873Z,-23747.53
2022-10-23T21:05:49.354Z,-23750.19
2022-10-23T21:08:16.012Z,-23752.38
2022-10-23T21:10:46.627Z,-23753.13
2022-10-23T21:13:13.554Z,-23757.97
2022-10-23T21:15:40.267Z,-23751.66
2022-10-23T21:18:26.398Z,-23755.31
2022-10-23T21:21:00.646Z,-23746.81
2022-10-23T21:23:28.711Z,-23743.66
2022-10-23T21:25:55.215Z,-23753.59
2022-10-23T21:28:21.824Z,-23749.97
2022-10-23T21:30:48.304Z,-23745.84
2022-10-23T21:33:14.773Z,-23747.78
2022-10-23T21:35:52.237Z,-23746.09
2022-10-23T21:38:25.560Z,-23748.25
2022-10-23T21:40:52.387Z,-23744.38
2022-10-23T21:43:18.903Z,-23752.13
2022-10-23T21:45:45.406Z,-23752.38
2022-10-23T21:48:12.638Z,-23752.63
2022-10-23T21:50:39.174Z,-23746.09
2022-10-23T21:53:05.685Z,-23746.81
2022-10-23T21:55:32.400Z,-23745.09
2022-10-23T21:57:58.883Z,-23744.88
2022-10-23T22:00:25.361Z,-23741.97
2022-10-23T22:02:51.988Z,-23738.06
2022-10-23T22:05:18.470Z,-23750.94
2022-10-23T22:07:48.215Z,-23745.34
2022-10-23T22:10:14.864Z,-23745.34
2022-10-23T22:12:41.369Z,-23746.09
2022-10-23T22:15:08.416Z,-23742.91
2022-10-23T22:17:35.038Z,-23743.88
2022-10-23T22:20:01.550Z,-23736.88
2022-10-23T22:22:28.130Z,-23736.63
2022-10-23T22:24:54.768Z,-23740.75
2022-10-23T22:27:21.261Z,-23741.22
2022-10-23T22:29:47.754Z,-23736.13
2022-10-23T22:32:14.468Z,-23740.50
2022-10-23T22:34:52.261Z,-23735.66
2022-10-23T22:37:19.508Z,-23739.53
2022-10-23T22:40:36.184Z,-23735.16
2022-10-23T22:43:02.803Z,-23742.44
2022-10-23T22:45:29.397Z,-23740.50
2022-10-23T22:47:56.142Z,-23741.47
2022-10-23T22:50:22.742Z,-23745.09
2022-10-23T22:52:49.219Z,-23739.53
2022-10-23T22:55:15.857Z,-23738.31
2022-10-23T22:57:42.757Z,-23736.88
2022-10-23T23:00:10.085Z,-23735.66
2022-10-23T23:02:36.651Z,-23737.09
2022-10-23T23:05:03.467Z,-23738.31
2022-10-23T23:07:30.074Z,-23740.00
2022-10-23T23:09:56.732Z,-23742.19
2022-10-23T23:12:23.299Z,-23738.06
2022-10-23T23:14:49.789Z,-23740.00
2022-10-23T23:17:16.352Z,-23738.56
2022-10-23T23:19:42.891Z,-23743.16
2022-10-23T23:22:09.487Z,-23750.19
2022-10-23T23:24:36.099Z,-23748.03
2022-10-23T23:27:02.671Z,-23743.41
2022-10-23T23:29:29.720Z,-23745.59
2022-10-23T23:31:56.305Z,-23746.81
2022-10-23T23:34:22.980Z,-23745.59
2022-10-23T23:36:49.534Z,-23745.34
2022-10-23T23:39:16.434Z,-23746.31
2022-10-23T23:41:43.035Z,-23745.34
2022-10-23T23:44:09.616Z,-23745.84
2022-10-23T23:46:36.186Z,-23740.00
2022-10-23T23:49:02.838Z,-23745.84
2022-10-23T23:51:29.514Z,-23744.63
2022-10-23T23:53:56.054Z,-23740.75
2022-10-23T23:56:22.661Z,-23738.56
2022-10-23T23:58:49.209Z,-23740.00
